Time;durP1;ratioP1;P1;durP2;ratioP2;P2;SDS_P1;SDS_P2;PMS_P1;PMS_P2;Temp;Humidity;BMP_temperature;BMP_pressure;BME280_temperature;BME280_humidity;BME280_pressure;Samples;Min_cycle;Max_cycle;Signal;HPM_P1;HPM_P2
2023/03/31 00:00:43;;;;;;;12.07;2.00;;;11.00;99.90;;;;;;5002219;28;20041;-66
2023/03/31 00:03:20;;;;;;;17.55;2.53;;;11.00;99.90;;;;;;5026910;28;20037;-67
2023/03/31 00:05:47;;;;;;;9.80;2.45;;;11.10;99.90;;;;;;4999590;28;20038;-66
2023/03/31 00:08:12;;;;;;;12.30;3.40;;;11.00;99.90;;;;;;5011985;28;20493;-66
2023/03/31 00:10:44;;;;;;;10.38;2.47;;;11.00;99.90;;;;;;5019533;28;20100;-66
2023/03/31 00:13:10;;;;;;;22.10;3.17;;;11.00;99.90;;;;;;5031477;28;20477;-66
2023/03/31 00:15:35;;;;;;;7.72;1.50;;;11.00;99.90;;;;;;4994680;28;20072;-66
2023/03/31 00:18:01;;;;;;;11.02;2.10;;;11.00;99.90;;;;;;4981601;28;20095;-66
2023/03/31 00:20:27;;;;;;;13.68;2.28;;;11.00;99.90;;;;;;5013819;28;20034;-66
2023/03/31 00:22:53;;;;;;;12.77;2.22;;;11.00;99.90;;;;;;5031433;28;20041;-66
2023/03/31 00:25:19;;;;;;;9.02;1.45;;;10.90;99.90;;;;;;5031387;28;20076;-66
2023/03/31 00:27:45;;;;;;;8.57;2.17;;;10.80;99.90;;;;;;5023760;28;20041;-67
2023/03/31 00:30:12;;;;;;;11.32;3.20;;;10.80;99.90;;;;;;5011251;28;20045;-66
2023/03/31 00:32:38;;;;;;;13.07;2.13;;;10.70;99.90;;;;;;5017569;28;20346;-66
2023/03/31 00:35:04;;;;;;;9.52;1.45;;;10.70;99.90;;;;;;5013377;28;20048;-66
2023/03/31 00:37:32;;;;;;;9.10;2.28;;;10.50;99.90;;;;;;5018218;28;20128;-66
2023/03/31 00:39:58;;;;;;;5.20;2.35;;;10.60;99.90;;;;;;5022254;28;20044;-66
2023/03/31 00:42:23;;;;;;;10.40;1.58;;;10.50;99.90;;;;;;5026483;28;20045;-66
2023/03/31 00:45:08;;;;;;;10.40;2.28;;;10.50;99.90;;;;;;5022861;28;20038;-66
2023/03/31 00:47:34;;;;;;;10.85;2.08;;;10.40;99.90;;;;;;4997294;28;20064;-66
2023/03/31 00:49:59;;;;;;;12.27;1.98;;;10.30;99.90;;;;;;5016632;28;20057;-66
2023/03/31 00:52:36;;;;;;;17.92;2.05;;;10.30;99.90;;;;;;5008503;28;20496;-66
2023/03/31 00:55:13;;;;;;;6.05;1.48;;;10.20;99.90;;;;;;5022210;28;20128;-66
2023/03/31 00:57:42;;;;;;;9.95;1.58;;;10.20;99.90;;;;;;5018775;28;20049;-66
2023/03/31 01:00:17;;;;;;;11.20;2.38;;;10.10;99.90;;;;;;5013290;28;20033;-66
2023/03/31 01:02:51;;;;;;;6.45;1.73;;;10.10;99.90;;;;;;5004374;28;20037;-66
2023/03/31 01:05:24;;;;;;;12.30;2.13;;;10.00;99.90;;;;;;5012877;28;20038;-66
2023/03/31 01:07:51;;;;;;;3.92;1.35;;;9.90;99.90;;;;;;5023915;28;20396;-66
2023/03/31 01:10:17;;;;;;;9.88;2.03;;;9.80;99.90;;;;;;4995534;28;20037;-66
2023/03/31 01:12:50;;;;;;;9.63;1.98;;;9.80;99.90;;;;;;5024039;28;20088;-65
2023/03/31 01:15:15;;;;;;;6.63;1.63;;;9.80;99.90;;;;;;5020036;28;20091;-66
2023/03/31 01:17:46;;;;;;;9.43;1.60;;;9.70;99.90;;;;;;4998655;28;20037;-66
2023/03/31 01:20:49;;;;;;;14.02;1.67;;;9.60;99.90;;;;;;5014120;28;20041;-66
2023/03/31 01:23:33;;;;;;;9.93;2.13;;;9.60;99.90;;;;;;5024141;28;20167;-66
2023/03/31 01:26:19;;;;;;;7.07;1.65;;;9.50;99.90;;;;;;5019703;28;20448;-66
2023/03/31 01:29:14;;;;;;;10.48;2.00;;;9.50;99.90;;;;;;5023798;28;20033;-66
2023/03/31 01:31:59;;;;;;;9.98;2.20;;;9.50;99.90;;;;;;5024732;28;20064;-66
2023/03/31 01:34:35;;;;;;;5.47;1.77;;;9.50;99.90;;;;;;5022450;28;20069;-65
2023/03/31 01:37:16;;;;;;;14.10;1.92;;;9.50;99.90;;;;;;5018885;28;20033;-65
2023/03/31 01:40:19;;;;;;;14.27;2.10;;;9.40;99.90;;;;;;5006522;28;20041;-66
2023/03/31 01:42:58;;;;;;;12.57;1.48;;;9.40;99.90;;;;;;5025487;28;20053;-66
2023/03/31 01:45:55;;;;;;;7.78;1.45;;;9.40;99.90;;;;;;5004057;28;20113;-66
2023/03/31 01:48:42;;;;;;;11.77;1.90;;;9.40;99.90;;;;;;5018777;28;20069;-66
2023/03/31 01:51:19;;;;;;;8.93;1.50;;;9.40;99.90;;;;;;5017792;28;20041;-66
2023/03/31 01:54:11;;;;;;;4.70;1.92;;;9.40;99.90;;;;;;5023469;28;20060;-66
2023/03/31 01:56:57;;;;;;;5.88;1.75;;;9.40;99.90;;;;;;5003875;28;20452;-66
2023/03/31 01:59:28;;;;;;;8.63;1.98;;;9.30;99.90;;;;;;5003548;28;20041;-65
2023/03/31 02:02:03;;;;;;;12.75;2.40;;;9.30;99.90;;;;;;5008292;28;20049;-66
2023/03/31 02:04:35;;;;;;;6.80;1.35;;;9.30;99.90;;;;;;5025103;28;20630;-66
2023/03/31 02:07:13;;;;;;;7.55;1.63;;;9.40;99.90;;;;;;5029081;28;20063;-66
2023/03/31 02:09:43;;;;;;;7.90;1.75;;;9.40;99.90;;;;;;4992551;28;20052;-66
2023/03/31 02:12:10;;;;;;;7.85;1.80;;;9.40;99.90;;;;;;5030827;28;20065;-66
2023/03/31 02:14:39;;;;;;;6.30;2.40;;;9.40;99.90;;;;;;5033023;28;20120;-67
2023/03/31 02:17:07;;;;;;;8.45;1.52;;;9.30;99.90;;;;;;5015879;28;20053;-66
2023/03/31 02:19:39;;;;;;;7.97;2.28;;;9.30;99.90;;;;;;5032195;28;20052;-65
2023/03/31 02:22:07;;;;;;;11.45;1.80;;;9.30;99.90;;;;;;5034495;28;20048;-65
2023/03/31 02:24:35;;;;;;;12.73;1.98;;;9.30;99.90;;;;;;5029089;28;20052;-65
2023/03/31 02:27:20;;;;;;;9.27;1.70;;;9.30;99.90;;;;;;5027870;28;20077;-65
2023/03/31 02:29:47;;;;;;;11.70;2.10;;;9.30;99.90;;;;;;5033305;28;20092;-66
2023/03/31 02:32:31;;;;;;;8.48;1.55;;;9.30;99.90;;;;;;5011776;28;20046;-66
2023/03/31 02:34:57;;;;;;;8.25;2.22;;;9.30;99.90;;;;;;5024259;28;20084;-65
2023/03/31 02:37:24;;;;;;;5.50;1.55;;;9.30;99.90;;;;;;5003472;28;20041;-66
2023/03/31 02:39:54;;;;;;;8.57;2.33;;;9.30;99.90;;;;;;5018299;28;20556;-66
2023/03/31 02:42:20;;;;;;;8.05;1.95;;;9.30;99.90;;;;;;5028618;28;20049;-65
2023/03/31 02:44:45;;;;;;;7.63;1.90;;;9.30;99.90;;;;;;5009973;28;20434;-66
2023/03/31 02:47:14;;;;;;;8.90;2.53;;;9.40;99.90;;;;;;5031652;28;20057;-66
2023/03/31 02:49:44;;;;;;;10.00;2.28;;;9.30;99.90;;;;;;5027292;28;20049;-66
2023/03/31 02:52:22;;;;;;;8.13;2.45;;;9.30;99.90;;;;;;5018374;28;20514;-66
2023/03/31 02:55:30;;;;;;;10.18;1.85;;;9.30;99.90;;;;;;5027175;28;20504;-66
2023/03/31 02:58:13;;;;;;;7.35;1.45;;;9.40;99.90;;;;;;5027493;28;20065;-66
2023/03/31 03:01:05;;;;;;;9.85;2.92;;;9.30;99.90;;;;;;5026989;28;20095;-66
2023/03/31 03:03:44;;;;;;;6.22;1.88;;;9.40;99.90;;;;;;5029153;28;20057;-66
2023/03/31 03:06:41;;;;;;;8.40;1.92;;;9.30;99.90;;;;;;5026577;28;20037;-66
2023/03/31 03:09:15;;;;;;;6.13;1.88;;;9.30;99.90;;;;;;5020119;28;20034;-66
2023/03/31 03:11:50;;;;;;;11.50;2.47;;;9.30;99.90;;;;;;5027518;28;20069;-66
2023/03/31 03:14:31;;;;;;;9.73;2.90;;;9.30;99.90;;;;;;5026945;28;20095;-66
2023/03/31 03:17:16;;;;;;;7.85;2.17;;;9.30;99.90;;;;;;5027261;28;20033;-66
2023/03/31 03:19:41;;;;;;;7.88;2.60;;;9.40;99.90;;;;;;5028165;28;20125;-66
2023/03/31 03:22:07;;;;;;;10.13;2.78;;;9.30;99.90;;;;;;5023276;28;20124;-65
2023/03/31 03:24:33;;;;;;;6.53;1.90;;;9.30;99.90;;;;;;5009238;28;20095;-66
2023/03/31 03:27:00;;;;;;;11.32;2.20;;;9.30;99.90;;;;;;5026944;28;20045;-66
2023/03/31 03:29:26;;;;;;;3.90;2.15;;;9.40;99.90;;;;;;5025159;28;20068;-66
2023/03/31 03:31:52;;;;;;;5.43;1.85;;;9.40;99.90;;;;;;5014913;28;20046;-66
2023/03/31 03:34:19;;;;;;;8.95;2.28;;;9.40;99.90;;;;;;5007667;28;20045;-67
2023/03/31 03:36:45;;;;;;;8.30;2.25;;;9.40;99.90;;;;;;5010242;28;20049;-65
2023/03/31 03:39:11;;;;;;;5.43;2.03;;;9.40;99.90;;;;;;5010644;28;20045;-66
2023/03/31 03:41:38;;;;;;;6.45;1.98;;;9.50;99.90;;;;;;5014862;28;20092;-65
2023/03/31 03:44:03;;;;;;;7.38;2.67;;;9.50;99.90;;;;;;5025887;28;20620;-66
2023/03/31 03:46:29;;;;;;;8.85;2.75;;;9.50;99.90;;;;;;5004908;28;20091;-66
2023/03/31 03:48:55;;;;;;;7.63;2.35;;;9.50;99.90;;;;;;5026917;28;20053;-68
2023/03/31 03:51:21;;;;;;;8.85;2.75;;;9.40;99.90;;;;;;5008443;28;20112;-67
2023/03/31 03:53:46;;;;;;;4.82;2.10;;;9.30;99.90;;;;;;4996044;28;20065;-67
2023/03/31 03:56:12;;;;;;;9.63;2.47;;;9.20;99.90;;;;;;5006915;28;20053;-67
2023/03/31 03:58:37;;;;;;;4.03;2.20;;;9.10;99.90;;;;;;5004855;28;20091;-66
2023/03/31 04:01:03;;;;;;;6.97;1.85;;;9.10;99.90;;;;;;4984042;28;20042;-66
2023/03/31 04:03:29;;;;;;;10.95;2.88;;;9.10;99.90;;;;;;4973452;28;20040;-67
2023/03/31 04:05:56;;;;;;;8.70;2.05;;;9.10;99.90;;;;;;5008129;28;20392;-67
2023/03/31 04:08:21;;;;;;;4.70;2.30;;;9.10;99.90;;;;;;4986767;28;20046;-67
2023/03/31 04:10:49;;;;;;;4.68;2.25;;;9.10;99.90;;;;;;5009787;28;20041;-67
2023/03/31 04:13:16;;;;;;;10.60;2.65;;;9.10;99.90;;;;;;4989765;28;20050;-68
2023/03/31 04:15:42;;;;;;;6.38;2.25;;;9.10;99.90;;;;;;5008296;28;20074;-68
2023/03/31 04:18:21;;;;;;;6.15;2.17;;;9.10;99.90;;;;;;4993928;28;20426;-66
2023/03/31 04:21:05;;;;;;;6.78;2.10;;;9.10;99.90;;;;;;5006458;28;20046;-67
2023/03/31 04:23:45;;;;;;;7.10;2.33;;;9.10;99.90;;;;;;4979336;28;20100;-67
2023/03/31 04:26:12;;;;;;;3.85;2.30;;;9.10;99.90;;;;;;4994907;28;20056;-67
2023/03/31 04:28:41;;;;;;;8.05;2.30;;;9.10;99.90;;;;;;4994836;28;20129;-67
2023/03/31 04:31:14;;;;;;;5.05;2.58;;;9.10;99.90;;;;;;5009918;28;20077;-66
2023/03/31 04:33:40;;;;;;;4.65;2.05;;;9.10;99.90;;;;;;4976540;28;20119;-67
2023/03/31 04:36:18;;;;;;;5.38;2.97;;;9.10;99.90;;;;;;4993687;28;20477;-68
2023/03/31 04:38:46;;;;;;;6.63;2.42;;;9.10;99.90;;;;;;4980388;28;20056;-66
2023/03/31 04:41:13;;;;;;;5.97;1.92;;;9.10;99.90;;;;;;5005087;28;20148;-66
2023/03/31 04:43:39;;;;;;;9.73;3.10;;;9.10;99.90;;;;;;4980744;28;20324;-67
2023/03/31 04:46:04;;;;;;;7.97;3.22;;;9.10;99.90;;;;;;4984163;28;20616;-67
2023/03/31 04:48:30;;;;;;;6.00;2.08;;;9.10;99.90;;;;;;5006385;28;20485;-66
2023/03/31 04:50:55;;;;;;;6.75;2.80;;;9.10;99.90;;;;;;5001875;28;20026;-66
2023/03/31 04:53:21;;;;;;;8.35;2.58;;;9.10;99.90;;;;;;5001303;28;20073;-67
2023/03/31 04:55:48;;;;;;;6.85;2.65;;;9.10;99.90;;;;;;5025104;28;20041;-67
2023/03/31 04:58:14;;;;;;;8.45;1.98;;;9.10;99.90;;;;;;5003615;28;20700;-66
2023/03/31 05:00:40;;;;;;;5.10;2.40;;;9.10;99.90;;;;;;5023616;28;20100;-66
2023/03/31 05:03:05;;;;;;;6.57;2.63;;;9.10;99.90;;;;;;5008188;28;20172;-66
2023/03/31 05:05:31;;;;;;;6.40;2.63;;;9.10;99.90;;;;;;4982744;28;20476;-67
2023/03/31 05:07:57;;;;;;;7.90;2.40;;;9.20;99.90;;;;;;4999168;28;20045;-67
2023/03/31 05:10:23;;;;;;;4.68;2.42;;;9.20;99.90;;;;;;5008267;28;20044;-64
2023/03/31 05:12:48;;;;;;;6.38;2.58;;;9.10;99.90;;;;;;5028357;28;20396;-65
2023/03/31 05:15:14;;;;;;;6.75;2.42;;;9.20;99.90;;;;;;5019575;28;20048;-67
2023/03/31 05:17:40;;;;;;;4.47;2.10;;;9.10;99.90;;;;;;5008876;28;20099;-67
2023/03/31 05:20:07;;;;;;;8.77;2.50;;;9.10;99.90;;;;;;5013646;28;20761;-67
2023/03/31 05:22:37;;;;;;;7.85;2.80;;;9.20;99.90;;;;;;5018323;28;20469;-66
2023/03/31 05:25:05;;;;;;;4.78;2.25;;;9.20;99.90;;;;;;5025127;28;20479;-66
2023/03/31 05:27:31;;;;;;;9.70;2.53;;;9.10;99.90;;;;;;5029320;28;20535;-67
2023/03/31 05:29:57;;;;;;;4.35;2.28;;;9.10;99.90;;;;;;5008790;28;20048;-67
2023/03/31 05:32:23;;;;;;;11.23;3.05;;;9.20;99.90;;;;;;5006554;28;20041;-67
2023/03/31 05:34:51;;;;;;;10.38;2.63;;;9.20;99.90;;;;;;4991093;28;20630;-68
2023/03/31 05:37:20;;;;;;;8.57;2.33;;;9.20;99.90;;;;;;5016247;28;20413;-67
2023/03/31 05:39:45;;;;;;;5.95;2.45;;;9.10;99.90;;;;;;5012255;28;20041;-68
2023/03/31 05:42:11;;;;;;;5.35;2.00;;;9.20;99.90;;;;;;4992888;28;20473;-68
2023/03/31 05:44:37;;;;;;;5.70;2.55;;;9.30;99.90;;;;;;5019074;28;20408;-68
2023/03/31 05:47:02;;;;;;;5.95;2.58;;;9.20;99.90;;;;;;5008539;28;20041;-67
2023/03/31 05:49:28;;;;;;;6.05;2.75;;;9.10;99.90;;;;;;5026183;28;20588;-68
2023/03/31 05:51:54;;;;;;;5.00;2.72;;;9.30;99.90;;;;;;5017700;28;20091;-68
2023/03/31 05:54:21;;;;;;;7.03;2.78;;;9.30;99.90;;;;;;5025463;28;20054;-68
2023/03/31 05:56:47;;;;;;;5.38;2.50;;;9.10;99.90;;;;;;5024804;28;20509;-68
2023/03/31 05:59:12;;;;;;;7.47;2.40;;;9.30;99.90;;;;;;5012003;28;20115;-68
2023/03/31 06:01:38;;;;;;;6.13;2.35;;;9.30;99.90;;;;;;4997500;28;20413;-68
2023/03/31 06:04:03;;;;;;;10.73;2.47;;;9.30;99.90;;;;;;5009335;28;20042;-68
2023/03/31 06:06:29;;;;;;;5.15;2.10;;;9.30;99.90;;;;;;5027991;28;20124;-69
2023/03/31 06:08:55;;;;;;;7.07;2.38;;;9.20;99.90;;;;;;5008251;28;20029;-67
2023/03/31 06:11:21;;;;;;;7.43;2.88;;;9.10;99.90;;;;;;5015244;28;20056;-69
2023/03/31 06:13:48;;;;;;;6.78;3.00;;;9.30;99.90;;;;;;5011222;28;20106;-69
2023/03/31 06:16:16;;;;;;;5.07;2.90;;;9.10;99.90;;;;;;5013693;28;20049;-70
2023/03/31 06:18:41;;;;;;;6.30;2.58;;;9.10;99.90;;;;;;5015500;28;20120;-69
2023/03/31 06:21:10;;;;;;;5.20;2.10;;;9.40;99.90;;;;;;5014142;28;20412;-69
2023/03/31 06:23:35;;;;;;;4.03;2.40;;;9.10;99.90;;;;;;5015286;28;20037;-69
2023/03/31 06:26:05;;;;;;;6.10;2.38;;;9.10;99.90;;;;;;5014398;28;20407;-69
2023/03/31 06:28:30;;;;;;;3.90;2.47;;;9.10;99.90;;;;;;5013302;28;20029;-70
2023/03/31 06:31:01;;;;;;;4.43;2.30;;;9.20;99.90;;;;;;4998089;28;20467;-68
2023/03/31 06:33:26;;;;;;;4.95;2.42;;;9.20;99.90;;;;;;5008908;28;20038;-67
2023/03/31 06:35:55;;;;;;;5.70;2.17;;;9.20;99.90;;;;;;5010493;28;20485;-67
2023/03/31 06:38:20;;;;;;;4.68;2.08;;;9.10;99.90;;;;;;5005673;28;20048;-68
2023/03/31 06:40:46;;;;;;;6.45;2.35;;;9.20;99.90;;;;;;5025124;28;20030;-67
2023/03/31 06:43:11;;;;;;;5.45;2.30;;;9.40;99.90;;;;;;5006891;28;20049;-67
2023/03/31 06:45:37;;;;;;;4.78;2.30;;;9.50;99.90;;;;;;4994922;28;20038;-67
2023/03/31 06:48:03;;;;;;;5.10;2.30;;;9.10;99.90;;;;;;5015873;28;20515;-68
2023/03/31 06:50:28;;;;;;;5.25;1.90;;;9.40;99.90;;;;;;5012356;28;20061;-65
2023/03/31 06:52:54;;;;;;;3.92;2.30;;;9.50;99.90;;;;;;5013064;28;20053;-67
2023/03/31 06:55:20;;;;;;;5.85;2.20;;;9.50;99.90;;;;;;4997459;28;20096;-68
2023/03/31 06:57:46;;;;;;;8.70;2.58;;;9.20;99.90;;;;;;4993138;28;20489;-67
2023/03/31 07:00:12;;;;;;;9.05;2.45;;;9.10;99.90;;;;;;4974769;28;20102;-67
2023/03/31 07:02:38;;;;;;;8.07;2.85;;;9.20;99.90;;;;;;4993323;28;20593;-66
2023/03/31 07:05:03;;;;;;;6.00;2.85;;;9.20;99.90;;;;;;5009964;28;20053;-68
2023/03/31 07:07:32;;;;;;;4.57;2.53;;;9.50;99.90;;;;;;4993549;28;20037;-67
2023/03/31 07:09:58;;;;;;;6.25;2.80;;;9.70;99.90;;;;;;4995522;28;20091;-67
2023/03/31 07:12:24;;;;;;;9.68;2.42;;;9.40;99.90;;;;;;4975719;28;20057;-68
2023/03/31 07:14:49;;;;;;;6.63;2.50;;;9.40;99.90;;;;;;4997549;28;20104;-66
2023/03/31 07:17:16;;;;;;;8.88;2.83;;;9.20;99.90;;;;;;4975967;28;20120;-66
2023/03/31 07:19:41;;;;;;;3.80;2.20;;;9.60;99.90;;;;;;4984667;28;20052;-67
2023/03/31 07:22:08;;;;;;;7.45;2.20;;;9.30;99.90;;;;;;4989831;28;20397;-66
2023/03/31 07:24:34;;;;;;;5.20;2.33;;;9.60;99.90;;;;;;4992828;28;20038;-66
2023/03/31 07:26:59;;;;;;;4.60;2.17;;;9.60;99.90;;;;;;5011338;28;20188;-66
2023/03/31 07:29:25;;;;;;;3.90;2.25;;;9.70;99.90;;;;;;5013761;28;20502;-66
2023/03/31 07:31:51;;;;;;;6.88;2.25;;;9.60;99.90;;;;;;4990923;28;20034;-66
2023/03/31 07:34:17;;;;;;;6.90;2.35;;;9.30;99.90;;;;;;4990899;28;20085;-66
2023/03/31 07:36:43;;;;;;;5.97;2.13;;;9.60;99.90;;;;;;4991116;28;20453;-65
2023/03/31 07:39:08;;;;;;;6.25;2.30;;;9.30;99.90;;;;;;5010196;28;20752;-66
2023/03/31 07:41:35;;;;;;;8.82;2.80;;;9.60;99.90;;;;;;4993541;28;20677;-66
2023/03/31 07:44:01;;;;;;;4.93;2.30;;;9.70;99.90;;;;;;5020348;28;20532;-65
2023/03/31 07:46:27;;;;;;;7.38;2.78;;;9.60;99.90;;;;;;4998697;28;20034;-65
2023/03/31 07:48:55;;;;;;;7.00;2.78;;;9.60;99.90;;;;;;4991801;28;20478;-66
2023/03/31 07:51:24;;;;;;;6.03;2.10;;;9.40;99.90;;;;;;4990331;28;20129;-65
2023/03/31 07:53:51;;;;;;;5.47;2.53;;;9.30;99.90;;;;;;5013027;28;20139;-66
2023/03/31 07:56:23;;;;;;;6.97;4.13;;;9.30;99.90;;;;;;5013534;28;20037;-66
2023/03/31 07:58:50;;;;;;;5.95;2.83;;;9.60;99.90;;;;;;4995649;28;20065;-66
2023/03/31 08:01:18;;;;;;;8.30;2.90;;;9.70;99.90;;;;;;5023037;28;20547;-65
2023/03/31 08:03:45;;;;;;;5.75;2.72;;;9.50;99.90;;;;;;5028544;28;20033;-65
2023/03/31 08:06:11;;;;;;;8.68;3.03;;;9.60;99.90;;;;;;5020534;28;20034;-66
2023/03/31 08:08:41;;;;;;;7.63;2.67;;;9.70;99.90;;;;;;5027469;28;20060;-65
2023/03/31 08:11:07;;;;;;;;;;;9.50;99.90;;;;;;5033048;28;20038;-63
2023/03/31 08:13:33;;;;;;;6.43;2.58;;;9.50;99.90;;;;;;5029892;28;19917;-65
2023/03/31 08:15:59;;;;;;;8.40;2.88;;;9.50;99.90;;;;;;5023132;28;20408;-66
2023/03/31 08:18:24;;;;;;;6.15;2.78;;;9.80;99.90;;;;;;5031721;28;20107;-66
2023/03/31 08:20:50;;;;;;;8.88;2.78;;;9.50;99.90;;;;;;5022071;28;20544;-66
2023/03/31 08:23:15;;;;;;;4.65;2.70;;;9.40;99.90;;;;;;5025935;28;20041;-66
2023/03/31 08:25:41;;;;;;;6.82;3.42;;;9.80;99.90;;;;;;5029952;28;20030;-66
2023/03/31 08:28:09;;;;;;;6.43;2.72;;;9.90;99.90;;;;;;5030527;28;20037;-66
2023/03/31 08:30:37;;;;;;;7.47;3.22;;;9.70;99.90;;;;;;5027918;28;20052;-66
2023/03/31 08:33:03;;;;;;;8.63;3.33;;;9.80;99.90;;;;;;5007251;28;20049;-66
2023/03/31 08:35:28;;;;;;;6.10;2.60;;;9.90;99.90;;;;;;5025051;28;20039;-67
2023/03/31 08:37:54;;;;;;;5.45;2.75;;;9.90;99.90;;;;;;5009909;28;20046;-67
2023/03/31 08:40:24;;;;;;;9.98;2.90;;;9.70;99.90;;;;;;5030110;28;20503;-67
2023/03/31 08:42:54;;;;;;;4.88;2.47;;;10.00;99.90;;;;;;5030589;28;20037;-67
2023/03/31 08:45:35;;;;;;;5.50;2.70;;;9.80;99.90;;;;;;5010556;28;20049;-66
2023/03/31 08:48:15;;;;;;;4.72;2.25;;;9.90;99.90;;;;;;5027113;28;20089;-67
2023/03/31 08:50:48;;;;;;;6.25;2.40;;;9.80;99.90;;;;;;5026449;28;20037;-66
2023/03/31 08:53:24;;;;;;;4.22;1.92;;;9.80;99.90;;;;;;5030320;28;20073;-67
2023/03/31 08:55:53;;;;;;;7.05;2.03;;;9.70;99.90;;;;;;5007268;28;20485;-65
2023/03/31 08:58:30;;;;;;;11.13;3.25;;;9.90;99.90;;;;;;5022861;28;20065;-64
2023/03/31 09:01:02;;;;;;;6.43;2.35;;;9.90;99.90;;;;;;5027647;28;20052;-65
2023/03/31 09:03:41;;;;;;;12.35;3.47;;;9.90;99.90;;;;;;5032231;28;20042;-65
2023/03/31 09:06:15;;;;;;;6.88;2.45;;;9.90;99.90;;;;;;5024194;28;20029;-66
2023/03/31 09:08:41;;;;;;;6.47;2.30;;;10.00;99.90;;;;;;4993453;28;20373;-65
2023/03/31 09:11:33;;;;;;;10.05;2.20;;;10.20;99.90;;;;;;5028535;28;20618;-67
2023/03/31 09:14:25;;;;;;;5.80;2.85;;;10.00;99.90;;;;;;5021004;28;20037;-65
2023/03/31 09:17:11;;;;;;;6.00;2.25;;;10.20;99.90;;;;;;5027621;28;20381;-66
2023/03/31 09:19:47;;;;;;;4.68;2.13;;;10.00;99.90;;;;;;5025802;28;20080;-67
2023/03/31 09:22:26;;;;;;;5.53;2.50;;;10.20;99.90;;;;;;5030921;28;20401;-65
2023/03/31 09:25:02;;;;;;;5.53;2.05;;;10.20;99.90;;;;;;5007677;28;20183;-65
2023/03/31 09:27:31;;;;;;;4.18;2.22;;;10.00;99.90;;;;;;5027389;28;20042;-65
2023/03/31 09:30:16;;;;;;;6.95;2.10;;;10.10;99.90;;;;;;5009427;28;20164;-65
2023/03/31 09:32:44;;;;;;;3.88;1.88;;;10.20;99.90;;;;;;5029518;28;20077;-65
2023/03/31 09:35:15;;;;;;;3.42;2.22;;;10.00;99.90;;;;;;5022648;28;20034;-65
2023/03/31 09:37:41;;;;;;;6.00;2.33;;;10.20;99.90;;;;;;5022586;28;20424;-65
2023/03/31 09:40:14;;;;;;;5.82;2.42;;;10.00;99.90;;;;;;5023568;28;20039;-65
2023/03/31 09:42:39;;;;;;;6.32;1.85;;;10.30;99.90;;;;;;5009936;28;20061;-65
2023/03/31 09:45:05;;;;;;;6.20;2.20;;;10.10;99.90;;;;;;5028918;28;20501;-65
2023/03/31 09:47:39;;;;;;;10.10;1.90;;;10.10;99.90;;;;;;5022973;28;20507;-64
2023/03/31 09:50:09;;;;;;;6.38;2.30;;;10.10;99.90;;;;;;5023226;28;20075;-65
2023/03/31 09:52:40;;;;;;;4.45;1.88;;;10.30;99.90;;;;;;5028846;28;20435;-65
2023/03/31 09:55:46;;;;;;;7.50;1.80;;;10.10;99.90;;;;;;5011629;28;20099;-64
2023/03/31 09:58:16;;;;;;;2.95;1.75;;;10.20;99.90;;;;;;5027305;28;20144;-66
2023/03/31 10:00:54;;;;;;;6.60;1.80;;;10.30;99.90;;;;;;5017215;28;20416;-65
2023/03/31 10:03:21;;;;;;;4.50;2.03;;;10.00;99.90;;;;;;5021072;28;20430;-65
2023/03/31 10:05:55;;;;;;;4.40;1.75;;;10.40;99.90;;;;;;5025976;28;20068;-65
2023/03/31 10:08:26;;;;;;;8.07;2.05;;;10.30;99.90;;;;;;5028636;28;20116;-65
2023/03/31 10:11:05;;;;;;;4.40;1.58;;;10.50;99.90;;;;;;5027106;28;20465;-65
2023/03/31 10:13:47;;;;;;;6.78;1.90;;;10.30;99.90;;;;;;5024628;28;20037;-64
2023/03/31 10:16:21;;;;;;;3.83;1.42;;;10.30;99.90;;;;;;5023344;28;20037;-65
2023/03/31 10:18:48;;;;;;;6.55;1.73;;;10.50;99.90;;;;;;5027775;28;20061;-66
2023/03/31 10:21:27;;;;;;;4.32;1.90;;;10.20;99.90;;;;;;5005594;28;20091;-66
2023/03/31 10:23:53;;;;;;;2.53;1.90;;;10.50;99.90;;;;;;4992692;28;20040;-66
2023/03/31 10:26:24;;;;;;;5.07;1.80;;;10.40;99.90;;;;;;5012527;28;20033;-67
2023/03/31 10:28:51;;;;;;;2.75;1.65;;;10.50;99.90;;;;;;5029806;28;20041;-67
2023/03/31 10:31:18;;;;;;;4.47;2.00;;;10.90;99.90;;;;;;5014530;28;20474;-68
2023/03/31 10:33:50;;;;;;;3.60;1.80;;;10.70;99.90;;;;;;5031360;28;20120;-66
2023/03/31 10:36:25;;;;;;;7.80;2.40;;;11.20;99.90;;;;;;5025893;28;20109;-66
2023/03/31 10:38:52;;;;;;;5.72;1.60;;;11.10;99.90;;;;;;5031194;28;20042;-66
2023/03/31 10:41:21;;;;;;;2.90;2.03;;;10.90;99.90;;;;;;5016930;28;20041;-66
2023/03/31 10:43:55;;;;;;;2.83;1.88;;;10.80;99.90;;;;;;5028578;28;20033;-66
2023/03/31 10:46:38;;;;;;;4.78;1.80;;;11.20;99.90;;;;;;5030569;28;20377;-66
2023/03/31 10:49:14;;;;;;;3.78;1.55;;;11.00;99.90;;;;;;5013294;28;20041;-66
2023/03/31 10:51:57;;;;;;;3.15;1.58;;;11.20;99.90;;;;;;5023815;28;20081;-65
2023/03/31 10:54:24;;;;;;;4.18;1.90;;;11.30;99.90;;;;;;5018994;28;20046;-68
2023/03/31 10:56:52;;;;;;;3.22;1.63;;;11.30;99.90;;;;;;5022720;28;20069;-67
2023/03/31 10:59:36;;;;;;;2.50;1.90;;;11.10;99.90;;;;;;5030577;28;20849;-65
2023/03/31 11:02:21;;;;;;;5.30;1.70;;;11.50;99.90;;;;;;5033136;28;20037;-66
2023/03/31 11:05:21;;;;;;;6.20;2.05;;;12.00;99.90;;;;;;5030175;28;20048;-65
2023/03/31 11:08:08;;;;;;;8.95;2.03;;;11.80;99.90;;;;;;5016542;28;20125;-66
2023/03/31 11:10:51;;;;;;;3.92;2.15;;;12.10;99.90;;;;;;5033378;28;20045;-67
2023/03/31 11:13:24;;;;;;;8.13;1.85;;;11.90;99.90;;;;;;5025845;28;20059;-65
2023/03/31 11:16:33;;;;;;;6.57;1.70;;;11.80;99.90;;;;;;5011726;28;20041;-67
2023/03/31 11:19:31;;;;;;;3.85;1.85;;;11.70;99.90;;;;;;4950752;28;20122;-66
2023/03/31 11:22:02;;;;;;;3.30;1.30;;;11.40;99.90;;;;;;4951961;28;20043;-66
2023/03/31 11:25:20;;;;;;;5.38;1.20;;;11.20;99.90;;;;;;5011254;28;20047;-66
2023/03/31 11:28:26;;;;;;;3.50;1.10;;;11.10;99.90;;;;;;5011168;28;20474;-67
2023/03/31 11:31:10;;;;;;;2.65;1.00;;;10.90;99.90;;;;;;4972353;28;20065;-68
2023/03/31 11:34:01;;;;;;;3.70;1.10;;;10.90;99.90;;;;;;5006006;28;20045;-68
2023/03/31 11:36:56;;;;;;;6.43;2.08;;;11.40;99.90;;;;;;4995299;28;20069;-69
2023/03/31 11:39:59;;;;;;;2.70;1.10;;;11.50;99.90;;;;;;5009050;28;20056;-67
2023/03/31 11:42:32;;;;;;;2.67;1.33;;;11.60;99.90;;;;;;5020249;28;20041;-67
2023/03/31 11:45:06;;;;;;;3.28;1.10;;;11.70;99.90;;;;;;5010233;28;20092;-68
2023/03/31 11:47:36;;;;;;;4.95;1.90;;;11.60;99.90;;;;;;4995764;28;20041;-68
2023/03/31 11:50:09;;;;;;;3.03;1.63;;;11.50;99.90;;;;;;5023352;28;20098;-67
2023/03/31 11:52:41;;;;;;;4.97;1.67;;;11.30;99.90;;;;;;5027713;28;20042;-68
2023/03/31 11:55:20;;;;;;;6.70;1.60;;;11.20;99.90;;;;;;5000440;28;20058;-67
2023/03/31 11:58:04;;;;;;;3.08;1.70;;;11.30;99.90;;;;;;4997596;28;20156;-69
2023/03/31 12:00:58;;;;;;;3.40;1.83;;;11.60;99.90;;;;;;5008352;28;20451;-69
2023/03/31 12:03:48;;;;;;;5.13;1.85;;;11.80;99.90;;;;;;4971124;28;20386;-69
2023/03/31 12:06:18;;;;;;;4.72;1.90;;;11.80;99.90;;;;;;4974439;28;20045;-69
2023/03/31 12:09:12;;;;;;;7.93;1.88;;;11.70;99.90;;;;;;5017151;28;20037;-68
2023/03/31 12:11:47;;;;;;;3.75;1.50;;;11.90;99.90;;;;;;5020883;28;20052;-69
2023/03/31 12:14:32;;;;;;;2.97;1.73;;;12.00;99.90;;;;;;4988787;28;20124;-68
2023/03/31 12:17:13;;;;;;;3.40;1.70;;;11.80;99.90;;;;;;5018754;28;20449;-69
2023/03/31 12:19:41;;;;;;;3.17;1.80;;;12.00;99.90;;;;;;4999194;28;20044;-68
2023/03/31 12:22:26;;;;;;;4.78;1.60;;;12.00;99.90;;;;;;5009570;28;20048;-69
2023/03/31 12:24:52;;;;;;;3.90;1.67;;;12.00;99.90;;;;;;4996753;28;20120;-69
2023/03/31 12:27:24;;;;;;;6.60;2.00;;;12.50;99.90;;;;;;5010368;28;20041;-68
2023/03/31 12:30:03;;;;;;;4.88;2.00;;;12.00;99.90;;;;;;5007523;28;20041;-69
2023/03/31 12:32:42;;;;;;;4.30;1.95;;;12.00;99.90;;;;;;5027656;28;20045;-67
2023/03/31 12:35:23;;;;;;;7.47;2.00;;;12.00;99.90;;;;;;5025386;28;20044;-70
2023/03/31 12:38:07;;;;;;;5.88;1.80;;;11.60;99.90;;;;;;5024082;28;20041;-70
2023/03/31 12:41:01;;;;;;;4.00;1.55;;;11.90;99.90;;;;;;5026437;28;20041;-67
2023/03/31 12:44:06;;;;;;;7.30;2.15;;;11.70;99.90;;;;;;5026980;28;20050;-69
2023/03/31 12:46:44;;;;;;;11.55;1.80;;;12.00;99.90;;;;;;5024041;28;20041;-69
2023/03/31 12:49:21;;;;;;;4.20;1.85;;;11.70;99.90;;;;;;4991235;28;20595;-67
2023/03/31 12:51:56;;;;;;;5.90;1.70;;;11.70;99.90;;;;;;5013153;28;20045;-69
2023/03/31 12:54:52;;;;;;;6.57;2.33;;;11.60;99.90;;;;;;5008920;28;20478;-70
2023/03/31 12:57:25;;;;;;;9.30;2.17;;;12.10;99.90;;;;;;5005864;28;20064;-69
2023/03/31 13:00:24;;;;;;;2.53;1.70;;;12.20;99.90;;;;;;5005753;28;22002;-69
2023/03/31 13:03:13;;;;;;;7.57;2.20;;;12.90;99.90;;;;;;4971332;28;20065;-70
2023/03/31 13:05:46;;;;;;;6.03;2.45;;;12.80;99.90;;;;;;5001896;28;20049;-67
2023/03/31 13:08:51;;;;;;;3.80;1.67;;;12.50;99.90;;;;;;5004344;28;20106;-68
2023/03/31 13:11:18;;;;;;;3.35;1.98;;;12.50;99.90;;;;;;5020570;28;20448;-68
2023/03/31 13:13:55;;;;;;;3.40;1.92;;;12.10;99.90;;;;;;5015887;28;20056;-68
2023/03/31 13:16:21;;;;;;;5.43;1.30;;;11.80;99.90;;;;;;5028117;28;20057;-68
2023/03/31 13:18:51;;;;;;;6.13;1.58;;;11.80;99.90;;;;;;4996731;28;20123;-67
2023/03/31 13:21:17;;;;;;;5.47;1.80;;;11.60;99.90;;;;;;5025738;28;20048;-69